createdAt,value
2022-12-14T00:00:12.002Z,12.83
2022-12-14T00:02:43.014Z,13.07
2022-12-14T00:05:16.063Z,14.17
2022-12-14T00:08:08.025Z,12.00
2022-12-14T00:10:47.064Z,12.57
2022-12-14T00:13:20.312Z,11.40
2022-12-14T00:15:48.690Z,12.17
2022-12-14T00:18:22.468Z,14.07
2022-12-14T00:21:00.709Z,12.60
2022-12-14T00:23:35.614Z,13.00
2022-12-14T00:26:11.662Z,13.80
2022-12-14T00:28:48.346Z,13.47
2022-12-14T00:31:19.194Z,13.27
2022-12-14T00:33:54.341Z,12.53
2022-12-14T00:36:45.563Z,12.43
2022-12-14T00:39:21.690Z,12.70
2022-12-14T00:41:54.649Z,12.63
2022-12-14T00:44:23.281Z,12.83
2022-12-14T00:47:06.797Z,12.27
2022-12-14T00:50:48.815Z,12.60
2022-12-14T00:53:21.578Z,11.27
2022-12-14T00:56:12.445Z,12.60
2022-12-14T00:59:06.501Z,11.87
2022-12-14T01:01:36.891Z,11.80
2022-12-14T01:04:19.601Z,12.80
2022-12-14T01:06:51.139Z,12.23
2022-12-14T01:09:46.919Z,12.20
2022-12-14T01:12:18.500Z,11.30
2022-12-14T01:15:08.382Z,12.47
2022-12-14T01:17:41.850Z,11.43
2022-12-14T01:20:12.849Z,11.63
2022-12-14T01:23:02.939Z,12.23
2022-12-14T01:25:34.368Z,12.33
2022-12-14T01:28:04.069Z,12.07
2022-12-14T01:31:13.526Z,11.30
2022-12-14T01:33:43.901Z,11.57
2022-12-14T01:36:34.917Z,10.33
2022-12-14T01:39:09.453Z,10.47
2022-12-14T01:42:02.907Z,10.93
2022-12-14T01:45:21.881Z,10.33
2022-12-14T01:47:57.489Z,11.00
2022-12-14T01:50:37.959Z,10.53
2022-12-14T01:53:14.791Z,11.50
2022-12-14T01:55:49.100Z,12.03
2022-12-14T01:58:22.741Z,11.90
2022-12-14T02:01:16.276Z,11.03
2022-12-14T02:03:53.823Z,10.87
2022-12-14T02:06:27.398Z,11.33
2022-12-14T02:09:00.047Z,10.77
2022-12-14T02:11:59.885Z,10.50
2022-12-14T02:15:03.905Z,10.70
2022-12-14T02:18:01.149Z,10.67
2022-12-14T02:20:37.739Z,10.17
2022-12-14T02:24:00.958Z,9.70
2022-12-14T02:27:08.080Z,10.07
2022-12-14T02:30:19.993Z,9.37
2022-12-14T02:33:25.188Z,10.87
2022-12-14T02:36:00.260Z,10.00
2022-12-14T02:39:01.217Z,9.47
2022-12-14T02:41:55.278Z,10.30
2022-12-14T02:44:32.278Z,9.53
2022-12-14T02:47:33.065Z,9.87
2022-12-14T02:50:18.073Z,9.70
2022-12-14T02:53:06.010Z,10.23
2022-12-14T02:55:49.990Z,10.10
2022-12-14T02:58:44.969Z,9.47
2022-12-14T03:01:33.753Z,9.60
2022-12-14T03:04:22.799Z,10.10
2022-12-14T03:07:07.116Z,9.83
2022-12-14T03:09:58.987Z,9.53
2022-12-14T03:12:55.259Z,10.43
2022-12-14T03:15:30.015Z,10.23
2022-12-14T03:18:11.662Z,9.57
2022-12-14T03:20:48.495Z,10.10
2022-12-14T03:23:25.895Z,9.70
2022-12-14T03:26:03.271Z,9.23
2022-12-14T03:28:40.153Z,9.47
2022-12-14T03:31:19.903Z,9.37
2022-12-14T03:33:52.157Z,10.90
2022-12-14T03:36:31.103Z,9.27
2022-12-14T03:39:08.492Z,9.80
2022-12-14T03:41:53.102Z,9.07
2022-12-14T03:44:52.007Z,9.40
2022-12-14T03:47:45.339Z,9.60
2022-12-14T03:50:38.180Z,9.73
2022-12-14T03:53:18.165Z,9.17
2022-12-14T03:55:59.901Z,9.07
2022-12-14T03:58:46.760Z,9.50
2022-12-14T04:01:46.261Z,9.70
2022-12-14T04:04:26.066Z,9.63
2022-12-14T04:07:22.672Z,9.33
2022-12-14T04:10:03.336Z,9.47
2022-12-14T04:12:53.656Z,9.50
2022-12-14T04:15:43.111Z,9.30
2022-12-14T04:18:41.207Z,9.93
2022-12-14T04:21:18.605Z,9.37
2022-12-14T04:24:09.240Z,9.53
2022-12-14T04:26:44.197Z,9.43
2022-12-14T04:29:35.152Z,9.17
2022-12-14T04:32:14.305Z,9.43
2022-12-14T04:35:05.829Z,8.97
2022-12-14T04:38:22.197Z,9.73
2022-12-14T04:41:01.079Z,9.13
2022-12-14T04:44:03.193Z,8.87
2022-12-14T04:46:40.725Z,9.10
2022-12-14T04:49:29.089Z,9.60
2022-12-14T04:52:08.012Z,9.77
2022-12-14T04:54:45.007Z,9.67
2022-12-14T04:57:27.588Z,9.50
2022-12-14T04:59:59.646Z,10.07
2022-12-14T05:02:44.944Z,9.73
2022-12-14T05:05:42.217Z,8.70
2022-12-14T05:08:35.016Z,9.50
2022-12-14T05:11:48.075Z,10.13
2022-12-14T05:14:27.031Z,9.20
2022-12-14T05:17:04.997Z,9.33
2022-12-14T05:19:36.218Z,10.10
2022-12-14T05:22:08.058Z,9.97
2022-12-14T05:24:36.283Z,9.87
2022-12-14T05:27:04.425Z,9.47
2022-12-14T05:29:32.408Z,10.57
2022-12-14T05:32:02.653Z,9.47
2022-12-14T05:34:30.839Z,9.57
2022-12-14T05:37:00.326Z,9.43
2022-12-14T05:39:28.562Z,10.27
2022-12-14T05:41:56.792Z,9.67
2022-12-14T05:44:24.780Z,9.47
2022-12-14T05:46:52.953Z,10.07
2022-12-14T05:49:22.527Z,10.57
2022-12-14T05:51:50.992Z,9.73
2022-12-14T05:54:18.890Z,10.30
2022-12-14T05:56:46.994Z,9.67
2022-12-14T05:59:16.122Z,10.80
2022-12-14T06:01:45.275Z,11.03
2022-12-14T06:04:18.237Z,10.40
2022-12-14T06:06:48.024Z,10.73
2022-12-14T06:09:17.445Z,10.60
2022-12-14T06:11:46.827Z,10.63
2022-12-14T06:14:15.705Z,10.47
2022-12-14T06:16:45.171Z,10.77
2022-12-14T06:19:14.951Z,10.23
2022-12-14T06:21:44.811Z,10.47
2022-12-14T06:24:15.587Z,9.97
2022-12-14T06:26:43.892Z,11.27
2022-12-14T06:29:17.671Z,10.70
2022-12-14T06:31:49.075Z,10.43
2022-12-14T06:34:18.489Z,10.37
2022-12-14T06:36:48.068Z,10.43
2022-12-14T06:39:18.516Z,11.67
2022-12-14T06:41:51.005Z,10.77
2022-12-14T06:44:19.266Z,10.60
2022-12-14T06:46:47.647Z,11.07
2022-12-14T06:49:17.242Z,10.73
2022-12-14T06:51:45.776Z,10.87
2022-12-14T06:54:14.355Z,10.20
2022-12-14T06:56:44.983Z,10.17
2022-12-14T06:59:14.093Z,10.47
2022-12-14T07:01:42.685Z,10.50
2022-12-14T07:04:11.399Z,10.80
2022-12-14T07:06:41.334Z,10.23
2022-12-14T07:09:12.483Z,10.87
2022-12-14T07:11:40.566Z,10.50
2022-12-14T07:14:11.968Z,10.43
2022-12-14T07:16:40.058Z,11.43
2022-12-14T07:19:08.467Z,11.20
2022-12-14T07:21:36.391Z,11.03
2022-12-14T07:24:05.010Z,10.37
2022-12-14T07:26:33.299Z,11.20
2022-12-14T07:29:01.685Z,11.20
2022-12-14T07:31:31.514Z,12.63
2022-12-14T07:34:01.165Z,10.77
2022-12-14T07:36:30.569Z,10.47
2022-12-14T07:38:59.183Z,9.80
2022-12-14T07:41:30.949Z,10.70
2022-12-14T07:44:01.081Z,10.30
2022-12-14T07:46:33.564Z,10.57
2022-12-14T07:49:03.618Z,9.23
2022-12-14T07:51:33.760Z,10.03
2022-12-14T07:54:02.794Z,9.40
2022-12-14T07:56:32.766Z,10.33
2022-12-14T07:59:02.431Z,10.43
2022-12-14T08:01:34.939Z,11.00
2022-12-14T08:04:06.820Z,9.90
2022-12-14T08:06:36.254Z,10.13
2022-12-14T08:09:04.585Z,10.13
2022-12-14T08:11:33.121Z,9.40
2022-12-14T08:14:03.468Z,10.37
2022-12-14T08:16:33.571Z,11.00
2022-12-14T08:19:02.452Z,9.27
2022-12-14T08:21:31.646Z,9.30
2022-12-14T08:24:00.124Z,10.57
2022-12-14T08:26:33.483Z,9.80
2022-12-14T08:29:05.223Z,10.43
2022-12-14T08:31:35.212Z,9.73
2022-12-14T08:34:05.037Z,10.00
2022-12-14T08:36:35.039Z,8.73
2022-12-14T08:39:05.204Z,9.13
2022-12-14T08:41:33.338Z,9.30
2022-12-14T08:44:02.783Z,8.67
2022-12-14T08:46:32.614Z,9.20
2022-12-14T08:49:02.382Z,9.93
2022-12-14T08:51:31.255Z,9.27
2022-12-14T08:54:00.363Z,9.23
2022-12-14T08:56:29.574Z,9.13
2022-12-14T08:58:58.510Z,9.87
2022-12-14T09:01:33.617Z,9.43
2022-12-14T09:04:09.584Z,9.60
2022-12-14T09:07:00.332Z,9.07
2022-12-14T09:09:28.871Z,9.27
2022-12-14T09:11:57.187Z,9.30
2022-12-14T09:14:25.349Z,9.70
2022-12-14T09:16:53.558Z,8.67
2022-12-14T09:19:23.137Z,9.37
2022-12-14T09:21:51.560Z,8.80
2022-12-14T09:24:20.053Z,8.73
2022-12-14T09:26:48.505Z,10.13
2022-12-14T09:29:18.363Z,8.43
2022-12-14T09:31:47.163Z,9.73
2022-12-14T09:34:16.666Z,8.80
2022-12-14T09:36:46.220Z,10.33
2022-12-14T09:39:15.212Z,9.80
2022-12-14T09:42:04.686Z,9.33
2022-12-14T09:44:47.185Z,8.50
2022-12-14T09:47:19.842Z,8.53
2022-12-14T09:49:50.823Z,8.63
2022-12-14T09:52:23.569Z,8.43
2022-12-14T09:54:52.700Z,7.73
2022-12-14T09:57:28.513Z,9.77
2022-12-14T09:59:56.639Z,8.80
2022-12-14T10:02:35.540Z,9.47
2022-12-14T10:05:20.743Z,8.80
2022-12-14T10:07:59.894Z,8.60
2022-12-14T10:10:33.895Z,9.17
2022-12-14T10:13:11.247Z,8.63
2022-12-14T10:15:43.810Z,7.43
2022-12-14T10:18:58.281Z,8.37
2022-12-14T10:21:24.625Z,8.70
2022-12-14T10:23:58.536Z,8.17
2022-12-14T10:26:32.637Z,9.27
2022-12-14T10:29:06.120Z,9.03
2022-12-14T10:31:49.368Z,8.83
2022-12-14T10:34:19.884Z,8.83
2022-12-14T10:36:56.267Z,7.83
2022-12-14T10:39:36.833Z,7.43
2022-12-14T10:42:13.693Z,9.13
2022-12-14T10:44:59.792Z,9.10
2022-12-14T10:47:40.959Z,9.20
2022-12-14T10:50:21.324Z,8.00
2022-12-14T10:52:53.751Z,8.30
2022-12-14T10:55:29.037Z,7.90
2022-12-14T10:57:57.061Z,7.97
2022-12-14T11:00:25.213Z,8.30
2022-12-14T11:02:57.258Z,7.10
2022-12-14T11:05:36.728Z,7.97
2022-12-14T11:08:07.988Z,7.97
2022-12-14T11:10:39.470Z,8.60
2022-12-14T11:13:16.181Z,9.77
2022-12-14T11:15:45.599Z,7.43
2022-12-14T11:18:29.440Z,7.43
2022-12-14T11:21:00.226Z,7.23
2022-12-14T11:23:30.710Z,7.53
2022-12-14T11:26:01.720Z,7.67
2022-12-14T11:28:37.187Z,7.37
2022-12-14T11:31:08.177Z,7.70
2022-12-14T11:33:39.853Z,7.70
2022-12-14T11:36:08.933Z,8.00
2022-12-14T11:38:37.077Z,6.10
2022-12-14T11:41:11.586Z,6.10
2022-12-14T11:43:40.570Z,7.20
2022-12-14T11:46:08.842Z,6.13
2022-12-14T11:48:39.355Z,7.00
2022-12-14T11:51:13.297Z,7.20
2022-12-14T11:53:41.842Z,6.83
2022-12-14T11:56:16.007Z,7.37
2022-12-14T11:58:50.737Z,7.83
2022-12-14T12:01:24.757Z,6.90
2022-12-14T12:03:55.569Z,7.30
2022-12-14T12:06:26.682Z,6.37
2022-12-14T12:08:57.657Z,5.53
2022-12-14T12:11:31.140Z,6.10
2022-12-14T12:14:03.092Z,6.50
2022-12-14T12:16:33.344Z,6.47
2022-12-14T12:19:11.821Z,6.67
2022-12-14T12:21:43.551Z,8.17
2022-12-14T12:24:17.917Z,6.20
2022-12-14T12:26:51.420Z,6.47
2022-12-14T12:29:26.509Z,6.13
2022-12-14T12:31:59.120Z,6.50
2022-12-14T12:34:32.867Z,6.60
2022-12-14T12:40:00.725Z,6.33
2022-12-14T12:42:41.803Z,5.67
2022-12-14T12:45:18.065Z,6.37
2022-12-14T12:47:49.279Z,6.00
2022-12-14T12:50:21.596Z,5.57
2022-12-14T12:53:03.560Z,6.03
2022-12-14T12:55:40.130Z,5.80
2022-12-14T12:58:25.269Z,6.07
2022-12-14T13:00:57.395Z,5.13
2022-12-14T13:03:29.254Z,6.30
2022-12-14T13:06:06.643Z,5.30
2022-12-14T13:08:40.364Z,5.43
2022-12-14T13:11:26.246Z,5.10
2022-12-14T13:14:02.284Z,4.43
2022-12-14T13:16:34.014Z,5.33
2022-12-14T13:19:40.385Z,4.67
2022-12-14T13:22:04.922Z,4.27
2022-12-14T13:24:34.803Z,4.50
2022-12-14T13:27:27.022Z,4.70
2022-12-14T13:30:27.858Z,4.43
2022-12-14T13:33:30.670Z,4.87
2022-12-14T13:36:23.927Z,4.50
2022-12-14T13:39:31.949Z,4.30
2022-12-14T13:42:06.297Z,4.43
2022-12-14T13:44:51.659Z,4.73
2022-12-14T13:47:23.402Z,4.33
2022-12-14T13:50:26.879Z,4.67
2022-12-14T13:52:47.627Z,4.67
2022-12-14T13:55:27.816Z,4.30
2022-12-14T13:58:06.861Z,4.60
2022-12-14T14:00:58.518Z,4.10
2022-12-14T14:03:47.291Z,4.37
2022-12-14T14:06:39.149Z,4.13
2022-12-14T14:10:01.895Z,4.60
2022-12-14T14:12:45.291Z,4.87
2022-12-14T14:16:26.753Z,4.67
2022-12-14T14:18:49.387Z,4.13
2022-12-14T14:22:06.159Z,4.60
2022-12-14T14:24:30.791Z,4.20
2022-12-14T14:27:01.503Z,4.47
2022-12-14T14:29:31.103Z,4.40
2022-12-14T14:32:01.701Z,4.90
2022-12-14T14:34:49.208Z,4.93
2022-12-14T14:37:30.417Z,4.60
2022-12-14T14:40:33.564Z,4.67
2022-12-14T14:43:23.993Z,4.57
2022-12-14T14:45:55.498Z,4.47
2022-12-14T14:48:32.668Z,4.40
2022-12-14T14:51:20.372Z,5.07
2022-12-14T14:54:14.279Z,4.97
2022-12-14T14:56:54.559Z,4.17
2022-12-14T14:59:50.507Z,4.83
2022-12-14T15:02:35.256Z,5.47
2022-12-14T15:07:58.548Z,5.77
2022-12-14T15:10:33.484Z,5.13
2022-12-14T15:13:05.963Z,5.33
2022-12-14T15:15:38.235Z,5.90
2022-12-14T15:18:16.452Z,5.60
2022-12-14T15:20:54.581Z,5.70
2022-12-14T15:23:23.168Z,5.23
2022-12-14T15:25:59.566Z,5.53
2022-12-14T15:28:29.371Z,5.10
2022-12-14T15:30:58.827Z,6.77
2022-12-14T15:33:30.827Z,5.90
2022-12-14T15:36:05.377Z,6.80
2022-12-14T15:38:35.745Z,7.00
2022-12-14T15:41:07.632Z,7.07
2022-12-14T15:43:35.568Z,7.10
2022-12-14T15:46:03.873Z,8.87
2022-12-14T15:48:34.566Z,7.50
2022-12-14T15:51:05.320Z,6.60
2022-12-14T15:53:36.753Z,6.80
2022-12-14T15:56:19.927Z,7.57
2022-12-14T15:58:48.834Z,7.00
2022-12-14T16:01:23.010Z,7.53
2022-12-14T16:03:54.595Z,7.53
2022-12-14T16:06:24.484Z,7.27
2022-12-14T16:08:56.168Z,6.73
2022-12-14T16:11:34.231Z,7.23
2022-12-14T16:14:10.751Z,6.37
2022-12-14T16:16:39.350Z,6.57
2022-12-14T16:19:26.708Z,7.17
2022-12-14T16:22:19.590Z,8.10
2022-12-14T16:25:03.805Z,8.20
2022-12-14T16:27:38.185Z,9.13
2022-12-14T16:30:18.936Z,10.43
2022-12-14T16:32:50.296Z,9.60
2022-12-14T16:35:21.519Z,10.37
2022-12-14T16:37:52.597Z,9.90
2022-12-14T16:40:33.279Z,9.40
2022-12-14T16:43:03.679Z,10.20
2022-12-14T16:46:10.391Z,9.90
2022-12-14T16:48:41.816Z,10.07
2022-12-14T16:51:58.230Z,12.07
2022-12-14T16:54:26.953Z,10.87
2022-12-14T16:56:59.349Z,11.53
2022-12-14T16:59:35.757Z,11.10
2022-12-14T17:02:04.203Z,11.90
2022-12-14T17:04:37.210Z,12.20
2022-12-14T17:07:05.465Z,12.40
2022-12-14T17:09:35.391Z,12.90
2022-12-14T17:12:12.408Z,13.87
2022-12-14T17:14:49.423Z,12.73
2022-12-14T17:17:23.008Z,13.53
2022-12-14T17:19:51.307Z,13.20
2022-12-14T17:22:24.176Z,12.63
2022-12-14T17:24:52.100Z,12.10
2022-12-14T17:27:22.144Z,12.33
2022-12-14T17:29:51.790Z,11.90
2022-12-14T17:32:21.268Z,11.30
2022-12-14T17:34:49.267Z,11.00
2022-12-14T17:37:18.969Z,9.97
2022-12-14T17:39:48.106Z,11.13
2022-12-14T17:42:17.770Z,9.53
2022-12-14T17:44:51.839Z,10.43
2022-12-14T17:47:21.265Z,10.13
2022-12-14T17:49:49.562Z,10.10
2022-12-14T17:52:20.675Z,10.17
2022-12-14T17:54:49.232Z,11.07
2022-12-14T17:57:20.458Z,11.50
2022-12-14T18:00:10.937Z,10.97
2022-12-14T18:02:40.827Z,11.20
2022-12-14T18:05:17.923Z,10.87
2022-12-14T18:07:46.307Z,11.00
2022-12-14T18:10:19.459Z,9.87
2022-12-14T18:12:48.314Z,10.50
2022-12-14T18:15:19.432Z,10.77
2022-12-14T18:17:49.673Z,11.17
2022-12-14T18:20:19.220Z,9.93
2022-12-14T18:22:49.798Z,9.70
2022-12-14T18:25:30.239Z,10.53
2022-12-14T18:27:58.641Z,10.43
2022-12-14T18:30:27.422Z,11.43
2022-12-14T18:32:58.384Z,10.77
2022-12-14T18:35:30.315Z,11.10
2022-12-14T18:38:00.953Z,11.97
2022-12-14T18:40:32.806Z,11.00
2022-12-14T18:43:03.367Z,11.83
2022-12-14T18:45:34.023Z,11.17
2022-12-14T18:48:04.730Z,12.50
2022-12-14T18:50:33.155Z,12.30
2022-12-14T18:53:01.817Z,10.47
2022-12-14T18:55:32.606Z,12.70
2022-12-14T18:58:03.675Z,11.30
2022-12-14T19:00:34.521Z,11.43
2022-12-14T19:03:26.919Z,11.90
2022-12-14T19:06:41.696Z,10.70
2022-12-14T19:08:57.169Z,11.67
2022-12-14T19:11:33.802Z,10.27
2022-12-14T19:14:03.195Z,9.70
2022-12-14T19:19:44.122Z,10.37
2022-12-14T19:22:13.967Z,10.07
2022-12-14T19:24:49.069Z,9.93
2022-12-14T19:27:43.885Z,10.30
2022-12-14T19:30:14.440Z,9.73
2022-12-14T19:33:03.647Z,10.90
2022-12-14T19:35:58.218Z,11.73
2022-12-14T19:38:29.072Z,11.77
2022-12-14T19:41:03.505Z,11.07
2022-12-14T19:43:32.702Z,11.00
2022-12-14T19:46:07.539Z,9.90
2022-12-14T19:48:36.447Z,11.07
2022-12-14T19:51:09.050Z,9.37
2022-12-14T19:53:38.893Z,9.67
2022-12-14T19:56:11.428Z,9.17
2022-12-14T19:58:40.286Z,9.60
2022-12-14T20:01:10.315Z,8.93
2022-12-14T20:04:01.048Z,8.47
2022-12-14T20:06:55.916Z,8.77
2022-12-14T20:09:24.825Z,9.13
2022-12-14T20:11:54.490Z,9.30
2022-12-14T20:14:34.876Z,8.73
2022-12-14T20:17:04.499Z,9.20
2022-12-14T20:19:35.110Z,9.67
2022-12-14T20:22:06.777Z,9.50
2022-12-14T20:24:35.692Z,9.43
2022-12-14T20:27:04.224Z,9.50
2022-12-14T20:29:33.511Z,10.37
2022-12-14T20:32:04.288Z,10.17
2022-12-14T20:34:33.373Z,9.73
2022-12-14T20:37:02.050Z,14.30
2022-12-14T20:39:42.117Z,12.10
2022-12-14T20:42:30.996Z,12.00
2022-12-14T20:45:03.802Z,11.10
2022-12-14T20:47:36.259Z,9.60
2022-12-14T20:50:05.280Z,10.60
2022-12-14T20:52:33.358Z,8.87
2022-12-14T20:55:07.012Z,5.90
2022-12-14T20:57:35.690Z,6.87
2022-12-14T21:00:04.648Z,6.50
2022-12-14T21:02:33.118Z,6.37
2022-12-14T21:05:04.017Z,4.77
2022-12-14T21:07:32.880Z,4.40
2022-12-14T21:10:25.077Z,5.63
2022-12-14T21:12:53.344Z,5.00
2022-12-14T21:15:23.782Z,5.00
2022-12-14T21:17:52.606Z,4.43
2022-12-14T21:20:20.626Z,4.57
2022-12-14T21:22:48.887Z,4.70
2022-12-14T21:25:19.140Z,4.70
2022-12-14T21:28:08.440Z,5.20
2022-12-14T21:30:36.782Z,4.77
2022-12-14T21:33:06.754Z,4.87
2022-12-14T21:35:40.210Z,4.73
2022-12-14T21:38:08.693Z,5.57
2022-12-14T21:41:06.482Z,5.27
2022-12-14T21:43:34.712Z,4.93
2022-12-14T21:46:05.171Z,4.83
2022-12-14T21:48:33.698Z,4.73
2022-12-14T21:51:07.308Z,4.60
2022-12-14T21:53:35.913Z,5.03
2022-12-14T21:56:19.948Z,5.50
2022-12-14T21:58:53.100Z,4.53
2022-12-14T22:01:23.192Z,4.80
2022-12-14T22:03:55.310Z,4.83
2022-12-14T22:06:24.022Z,5.33
2022-12-14T22:08:53.267Z,6.43
2022-12-14T22:11:22.735Z,6.57
2022-12-14T22:13:51.870Z,7.33
2022-12-14T22:16:21.633Z,6.50
2022-12-14T22:18:49.717Z,6.00
2022-12-14T22:21:21.085Z,6.47
2022-12-14T22:23:53.421Z,8.90
2022-12-14T22:26:25.956Z,6.97
2022-12-14T22:28:54.601Z,6.90
2022-12-14T22:31:24.072Z,8.70
2022-12-14T22:33:57.340Z,8.43
2022-12-14T22:36:25.960Z,8.10
2022-12-14T22:38:56.810Z,9.17
2022-12-14T22:41:27.125Z,9.13
2022-12-14T22:43:57.129Z,8.77
2022-12-14T22:46:27.231Z,8.83
2022-12-14T22:48:56.036Z,8.10
2022-12-14T22:51:27.646Z,8.67
2022-12-14T22:53:55.849Z,8.73
2022-12-14T22:56:29.703Z,7.80
2022-12-14T22:59:04.774Z,8.20
2022-12-14T23:01:34.664Z,7.93
2022-12-14T23:04:04.261Z,8.50
2022-12-14T23:06:53.834Z,8.07
2022-12-14T23:09:40.096Z,8.43
2022-12-14T23:12:27.757Z,8.03
2022-12-14T23:15:13.491Z,7.87
2022-12-14T23:17:59.605Z,7.43
2022-12-14T23:20:45.448Z,7.03
2022-12-14T23:23:31.654Z,7.53
2022-12-14T23:26:21.504Z,7.83
2022-12-14T23:29:08.220Z,7.40
2022-12-14T23:32:15.002Z,8.10
2022-12-14T23:35:00.454Z,8.13
2022-12-14T23:37:46.235Z,7.07
2022-12-14T23:40:31.685Z,8.37
2022-12-14T23:43:26.649Z,7.70
2022-12-14T23:46:13.877Z,8.30
2022-12-14T23:48:59.993Z,8.03
2022-12-14T23:51:47.093Z,7.73
2022-12-14T23:54:33.087Z,7.83
2022-12-14T23:57:18.965Z,7.17
